Impacts TAF Board INFO
FOR SITUATIONAL AWARENESS. NOT TO BE USED FOR FLIGHT PLANNING PURPOSES.
IDs:

KSFO - San Francisco Intl, CA, US

Issued at 1258 UTC 21 May 2018
Updated at 1314 UTC 21 May 2018
Potential Impact None Slight Moderate High
Time<<22/02Z 22/03Z 22/04Z 22/05Z 22/06Z 22/07Z 22/08Z 22/09Z 22/10Z 22/11Z 22/12Z 22/13Z 22/14Z>>
Type PRVL
  [TEMP]  
PRVL
  [TEMP]  
PRVL PRVL PRVL PRVL PRVL PRVL PRVL PRVL PRVL PRVL PRVL
VIS >6 >6 >6 >6 >6 >6 >6 >6 >6 >6 >6 >6 >6
CIG --
  [20]  
--
  [20]  
20 20 15 15 15 15 15 15 15 15 15
Cover SCT
  [BKN]  
SCT
  [BKN]  
BKN BKN OVC OVC OVC OVC OVC OVC OVC OVC OVC
FltCat VFR
  [MVFR]  
VFR
  [MVFR]  
MVFR MVFR MVFR MVFR MVFR MVFR MVFR MVFR MVFR MVFR MVFR
WX --
  [--]  
--
  [--]  
-- -- -- -- -- -- -- -- -- -- --
WDir 270
[270]
270
[270]
270 270 260 260 260 260 260 260 260 260 260
WSpd 17
  [17]  
17
  [17]  
10 10 9 9 9 9 9 9 9 9 9
WGst 23
  [23]  
23
  [23]  
-- -- -- -- -- -- -- -- -- -- --

Raw TAF
KSFO 211258Z 2113/2218 25005KT P6SM FEW015
  FM211800 28011KT P6SM FEW015
  FM212100 27017G23KT P6SM SCT020
  TEMPO 2202/2204 BKN020
  FM220400 27010KT P6SM BKN020
  FM220600 26009KT P6SM OVC015
  FM221600 25008KT P6SM BKN022
  FM221730 26010KT P6SM SCT024 BKN100


METAR Board
Radar Display
Forecast Discussion

FOR SITUATIONAL AWARENESS. NOT TO BE USED FOR FLIGHT PLANNING PURPOSES.